Terminal Aerodrome Forecast
Issued by NWS Jackson, MS

Home | Current Version | Previous Version | Text Only | Print | Product List | Glossary On
Versions: 1 2 3 4 5 6 7 8 9 10 11 12 13 14
000
FTUS44 KJAN 290537
TAFMEI
TAF
KMEI 290537Z 2906/3006 00000KT P6SM SKC
     FM291300 33007KT P6SM SCT040
     FM291600 35010KT P6SM VCTS SCT050CB
     FM300000 33003KT P6SM SCT150=

USA.gov is the U.S. government's official web portal to all federal, state and local government web resources and services.